Time;durP1;ratioP1;P1;durP2;ratioP2;P2;SDS_P1;SDS_P2;PMS_P1;PMS_P2;Temp;Humidity;BMP_temperature;BMP_pressure;BME280_temperature;BME280_humidity;BME280_pressure;Samples;Min_cycle;Max_cycle;Signal;HPM_P1;HPM_P2
2021/12/14 00:01:00;;;;;;;;;;;21.50;56.10;;;;;;4944031;29;19958;-80
2021/12/14 00:03:28;;;;;;;;;;;21.50;55.10;;;;;;4943040;29;19962;-81
2021/12/14 00:05:54;;;;;;;;;;;21.50;55.10;;;;;;4924176;29;20291;-83
2021/12/14 00:08:20;;;;;;;;;;;21.60;55.10;;;;;;4926793;29;19914;-82
2021/12/14 00:11:07;;;;;;;;;;;21.60;54.80;;;;;;4923378;29;20133;-86
2021/12/14 00:16:04;;;;;;;;;;;21.70;54.70;;;;;;4905903;29;19938;-84
2021/12/14 00:18:32;;;;;;;;;;;21.70;55.20;;;;;;4922737;29;19915;-85
2021/12/14 00:21:00;;;;;;;;;;;21.70;55.10;;;;;;4907720;29;20195;-86
2021/12/14 00:26:12;;;;;;;;;;;21.70;55.30;;;;;;4918717;29;19911;-85
2021/12/14 00:28:38;;;;;;;;;;;21.70;55.50;;;;;;4923391;29;20307;-83
2021/12/14 00:31:09;;;;;;;;;;;21.70;55.60;;;;;;4939237;29;19917;-83
2021/12/14 00:33:39;;;;;;;;;;;21.80;55.80;;;;;;4930192;29;19906;-84
2021/12/14 00:36:06;;;;;;;;;;;21.70;55.80;;;;;;4950427;29;19914;-83
2021/12/14 00:38:34;;;;;;;;;;;21.70;56.10;;;;;;4947865;29;19911;-83
2021/12/14 00:41:02;;;;;;;;;;;21.70;56.20;;;;;;4948507;29;19922;-83
2021/12/14 00:43:28;;;;;;;;;;;21.70;56.30;;;;;;4944040;29;19910;-84
2021/12/14 00:45:54;;;;;;;;;;;21.70;56.50;;;;;;4928189;29;19915;-85
2021/12/14 00:48:20;;;;;;;;;;;21.80;56.60;;;;;;4936308;29;19953;-78
2021/12/14 00:50:48;;;;;;;;;;;21.70;56.50;;;;;;4936142;29;20383;-78
2021/12/14 00:53:14;;;;;;;;;;;21.70;56.60;;;;;;4937581;29;19910;-78
2021/12/14 00:55:42;;;;;;;;;;;21.70;56.60;;;;;;4936581;29;19978;-78
2021/12/14 00:58:09;;;;;;;;;;;21.70;56.70;;;;;;4901050;29;20002;-78
2021/12/14 01:00:38;;;;;;;;;;;21.70;56.60;;;;;;4901112;29;20001;-78
2021/12/14 01:03:06;;;;;;;;;;;21.70;56.70;;;;;;4915594;29;19911;-78
2021/12/14 01:05:33;;;;;;;;;;;21.80;56.90;;;;;;4917657;29;19973;-78
2021/12/14 01:08:00;;;;;;;;;;;21.70;56.80;;;;;;4917785;29;19969;-78
2021/12/14 01:10:36;;;;;;;;;;;21.70;56.90;;;;;;4916750;29;20459;-78
2021/12/14 01:13:06;;;;;;;;;;;21.70;56.90;;;;;;4917420;29;19953;-78
2021/12/14 01:21:18;;;;;;;;;;;21.70;57.00;;;;;;4930904;28;19914;-71
2021/12/14 01:23:45;;;;;;;;;;;21.70;57.10;;;;;;4952934;28;19953;-71
2021/12/14 01:26:14;;;;;;;;;;;21.70;57.10;;;;;;4953300;28;19918;-70
2021/12/14 01:28:41;;;;;;;;;;;21.70;57.20;;;;;;4918026;29;19959;-71
2021/12/14 01:31:13;;;;;;;;;;;21.70;57.40;;;;;;4915553;29;19911;-70
2021/12/14 01:33:40;;;;;;;;;;;21.70;57.30;;;;;;4930900;29;19981;-71
2021/12/14 01:36:22;;;;;;;;;;;21.70;57.40;;;;;;4930762;29;20391;-71
2021/12/14 01:39:09;;;;;;;;;;;21.70;57.40;;;;;;4915247;29;19911;-72
2021/12/14 01:41:35;;;;;;;;;;;21.70;57.50;;;;;;4931021;29;19922;-71
2021/12/14 01:44:01;;;;;;;;;;;21.70;57.50;;;;;;4931005;29;19915;-71
2021/12/14 01:46:39;;;;;;;;;;;21.70;57.50;;;;;;4918150;29;19956;-70
2021/12/14 01:49:29;;;;;;;;;;;21.70;57.50;;;;;;4935112;29;19916;-70
2021/12/14 01:52:16;;;;;;;;;;;21.70;57.60;;;;;;4920785;29;19957;-70
2021/12/14 01:54:43;;;;;;;;;;;21.70;57.60;;;;;;4933618;29;19911;-71
2021/12/14 01:57:11;;;;;;;;;;;21.70;57.60;;;;;;4933821;29;20376;-71
2021/12/14 01:59:39;;;;;;;;;;;21.70;57.60;;;;;;4933318;29;19962;-71
2021/12/14 02:02:18;;;;;;;;;;;21.70;57.60;;;;;;4913825;29;19950;-71
2021/12/14 02:04:45;;;;;;;;;;;21.70;57.70;;;;;;4932250;29;19919;-71
2021/12/14 02:07:11;;;;;;;;;;;21.70;57.70;;;;;;4933779;29;19919;-71
2021/12/14 02:09:40;;;;;;;;;;;21.70;57.80;;;;;;4933852;29;19980;-71
2021/12/14 02:12:14;;;;;;;;;;;21.70;57.80;;;;;;4933690;29;19911;-71
2021/12/14 02:14:40;;;;;;;;;;;21.70;58.00;;;;;;4933037;29;19977;-71
2021/12/14 02:17:09;;;;;;;;;;;21.70;58.50;;;;;;4934033;29;19911;-71
2021/12/14 02:19:35;;;;;;;;;;;21.70;58.10;;;;;;4933437;29;20400;-71
2021/12/14 02:22:01;;;;;;;;;;;21.70;57.80;;;;;;4934721;29;20383;-69
2021/12/14 02:24:28;;;;;;;;;;;21.70;58.00;;;;;;4934437;29;19992;-71
2021/12/14 02:26:59;;;;;;;;;;;21.70;57.90;;;;;;4933924;29;19957;-71
2021/12/14 02:29:26;;;;;;;;;;;21.70;58.10;;;;;;4934795;29;20055;-71
2021/12/14 02:31:53;;;;;;;;;;;21.70;58.00;;;;;;4918367;29;19945;-70
2021/12/14 02:34:20;;;;;;;;;;;21.70;57.90;;;;;;4900546;29;19917;-70
2021/12/14 02:36:47;;;;;;;;;;;21.70;58.00;;;;;;4917688;29;20165;-71
2021/12/14 02:42:19;;;;;;;;;;;21.70;58.20;;;;;;4882191;29;19915;-71
2021/12/14 02:44:49;;;;;;;;;;;21.70;58.10;;;;;;4914164;29;19934;-71
2021/12/14 02:47:16;;;;;;;;;;;21.70;58.10;;;;;;4898702;29;19997;-70
2021/12/14 02:49:43;;;;;;;;;;;21.70;58.40;;;;;;4898860;29;19917;-71
2021/12/14 02:52:35;;;;;;;;;;;21.70;58.30;;;;;;4898495;29;20368;-71
2021/12/14 02:55:15;;;;;;;;;;;21.70;58.40;;;;;;4898313;29;19918;-71
2021/12/14 02:57:43;;;;;;;;;;;21.70;58.20;;;;;;4894245;29;20130;-71
2021/12/14 03:00:12;;;;;;;;;;;21.70;58.20;;;;;;4917161;29;19922;-70
2021/12/14 03:02:38;;;;;;;;;;;21.70;58.20;;;;;;4934241;29;19911;-71
2021/12/14 03:05:06;;;;;;;;;;;21.70;58.30;;;;;;4916788;29;19917;-71
2021/12/14 03:07:43;;;;;;;;;;;21.70;58.50;;;;;;4917515;29;20001;-70
2021/12/14 03:12:44;;;;;;;;;;;21.70;58.30;;;;;;4929242;29;19918;-71
2021/12/14 03:15:10;;;;;;;;;;;21.70;58.30;;;;;;4913527;29;19915;-71
2021/12/14 03:17:36;;;;;;;;;;;21.70;58.30;;;;;;4929691;29;19915;-71
2021/12/14 03:20:13;;;;;;;;;;;21.70;58.40;;;;;;4929682;29;19935;-71
2021/12/14 03:22:59;;;;;;;;;;;21.70;58.40;;;;;;4914054;29;19915;-70
2021/12/14 03:25:26;;;;;;;;;;;21.70;58.70;;;;;;4917226;29;19910;-70
2021/12/14 03:27:54;;;;;;;;;;;21.70;58.40;;;;;;4937208;29;19918;-70
2021/12/14 03:30:30;;;;;;;;;;;21.70;58.40;;;;;;4920500;29;19914;-71
2021/12/14 03:32:58;;;;;;;;;;;21.70;58.70;;;;;;4920792;29;20001;-71
2021/12/14 03:35:42;;;;;;;;;;;21.70;58.70;;;;;;4936227;29;19917;-71
2021/12/14 03:38:12;;;;;;;;;;;21.70;58.70;;;;;;4917642;29;19971;-70
2021/12/14 03:40:37;;;;;;;;;;;21.70;58.80;;;;;;4917143;29;19915;-70
2021/12/14 03:43:07;;;;;;;;;;;21.70;58.80;;;;;;4933563;29;19910;-70
2021/12/14 03:45:33;;;;;;;;;;;21.70;58.80;;;;;;4935943;29;19910;-71
2021/12/14 03:48:00;;;;;;;;;;;21.70;58.70;;;;;;4935978;29;19915;-70
2021/12/14 03:50:29;;;;;;;;;;;21.70;58.90;;;;;;4935975;29;19910;-71
2021/12/14 03:52:58;;;;;;;;;;;21.70;58.80;;;;;;4919922;29;19910;-71
2021/12/14 03:55:30;;;;;;;;;;;21.80;59.20;;;;;;4904254;29;20005;-70
2021/12/14 03:57:56;;;;;;;;;;;21.80;58.70;;;;;;4935904;29;19911;-71
2021/12/14 04:00:31;;;;;;;;;;;21.80;59.30;;;;;;4936019;29;19969;-70
2021/12/14 04:02:58;;;;;;;;;;;21.80;59.30;;;;;;4937472;29;19911;-70
2021/12/14 04:05:41;;;;;;;;;;;21.70;59.30;;;;;;4918446;29;19965;-71
2021/12/14 04:08:07;;;;;;;;;;;21.80;59.20;;;;;;4920701;29;19965;-70
2021/12/14 04:10:34;;;;;;;;;;;21.80;59.30;;;;;;4936655;29;20050;-70
2021/12/14 04:13:00;;;;;;;;;;;21.80;59.30;;;;;;4937452;29;19917;-70
2021/12/14 04:15:26;;;;;;;;;;;21.80;59.40;;;;;;4924367;29;19944;-69
2021/12/14 04:17:53;;;;;;;;;;;21.80;59.70;;;;;;4940424;29;19922;-70
2021/12/14 04:20:25;;;;;;;;;;;21.70;59.10;;;;;;4932754;29;19915;-70
2021/12/14 04:22:51;;;;;;;;;;;21.70;59.90;;;;;;4919086;29;20022;-70
2021/12/14 04:25:22;;;;;;;;;;;21.70;59.40;;;;;;4932406;29;19911;-70
2021/12/14 04:27:47;;;;;;;;;;;21.70;59.20;;;;;;4916931;29;20363;-71
2021/12/14 04:30:15;;;;;;;;;;;21.70;59.70;;;;;;4932501;29;19933;-71
2021/12/14 04:32:44;;;;;;;;;;;21.70;59.30;;;;;;4916747;29;19915;-71
2021/12/14 04:35:10;;;;;;;;;;;21.70;59.40;;;;;;4934993;29;19918;-70
2021/12/14 04:37:39;;;;;;;;;;;21.70;59.20;;;;;;4934890;29;19911;-71
2021/12/14 04:40:23;;;;;;;;;;;21.70;59.10;;;;;;4935211;29;19937;-71
2021/12/14 04:51:57;;;;;;;;;;;21.70;59.50;;;;;;4935066;29;19910;-71
2021/12/14 04:53:55;;;;;;;;;;;21.70;59.20;;;;;;4931752;29;19911;-71
2021/12/14 04:56:34;;;;;;;;;;;21.70;59.60;;;;;;4931071;29;19911;-71
2021/12/14 04:59:15;;;;;;;;;;;21.70;59.30;;;;;;4931265;29;19918;-71
2021/12/14 05:01:43;;;;;;;;;;;21.70;59.30;;;;;;4918158;29;19918;-71
2021/12/14 05:04:15;;;;;;;;;;;21.80;59.50;;;;;;4915508;29;20371;-70
2021/12/14 05:06:47;;;;;;;;;;;21.70;59.40;;;;;;4899906;29;20291;-71
2021/12/14 05:09:21;;;;;;;;;;;21.80;59.90;;;;;;4900136;29;20407;-71
2021/12/14 05:12:00;;;;;;;;;;;21.70;59.40;;;;;;4915272;29;20375;-71
2021/12/14 05:14:30;;;;;;;;;;;21.80;59.60;;;;;;4891373;29;20002;-70
2021/12/14 05:17:00;;;;;;;;;;;21.80;59.00;;;;;;4934308;29;20017;-72
2021/12/14 05:19:29;;;;;;;;;;;21.80;59.60;;;;;;4919126;29;19914;-70
2021/12/14 05:21:59;;;;;;;;;;;21.70;59.40;;;;;;4934318;29;20402;-70
2021/12/14 05:24:27;;;;;;;;;;;21.70;59.30;;;;;;4935347;29;20390;-71
2021/12/14 05:27:01;;;;;;;;;;;21.70;59.70;;;;;;4934195;29;19918;-71
2021/12/14 05:29:31;;;;;;;;;;;21.80;59.20;;;;;;4932797;29;19979;-70
2021/12/14 05:31:59;;;;;;;;;;;21.80;59.40;;;;;;4919475;29;19914;-71
2021/12/14 05:34:27;;;;;;;;;;;21.70;59.10;;;;;;4918087;29;19910;-71
2021/12/14 05:36:59;;;;;;;;;;;21.70;58.90;;;;;;4934059;29;19949;-70
2021/12/14 05:39:51;;;;;;;;;;;21.80;59.90;;;;;;4934098;29;19911;-71
2021/12/14 05:45:15;;;;;;;;;;;21.80;59.70;;;;;;4933820;29;20013;-71
2021/12/14 05:47:47;;;;;;;;;;;21.70;59.20;;;;;;4917413;29;20360;-70
2021/12/14 05:50:38;;;;;;;;;;;21.80;59.80;;;;;;4927423;29;19993;-71
2021/12/14 05:53:06;;;;;;;;;;;21.70;59.70;;;;;;4934123;29;19913;-71
2021/12/14 05:55:34;;;;;;;;;;;21.80;59.50;;;;;;4933117;29;19910;-71
2021/12/14 05:58:02;;;;;;;;;;;21.70;59.20;;;;;;4933632;29;19921;-71
2021/12/14 06:00:31;;;;;;;;;;;21.70;59.70;;;;;;4933823;29;19922;-70
2021/12/14 06:03:03;;;;;;;;;;;21.70;59.30;;;;;;4933586;29;19915;-71
2021/12/14 06:05:30;;;;;;;;;;;21.70;59.20;;;;;;4902159;29;20355;-71
2021/12/14 06:07:57;;;;;;;;;;;21.80;59.80;;;;;;4917940;29;19917;-71
2021/12/14 06:10:24;;;;;;;;;;;21.70;59.30;;;;;;4920108;29;19917;-71
2021/12/14 06:12:52;;;;;;;;;;;21.80;59.90;;;;;;4917815;29;20431;-71
2021/12/14 06:15:22;;;;;;;;;;;21.80;59.40;;;;;;4917604;29;19910;-71
2021/12/14 06:17:49;;;;;;;;;;;21.70;59.20;;;;;;4917611;29;19970;-71
2021/12/14 06:20:47;;;;;;;;;;;21.80;59.10;;;;;;4902601;29;19915;-71
2021/12/14 06:23:13;;;;;;;;;;;21.80;59.20;;;;;;4901870;29;19921;-70
2021/12/14 06:25:58;;;;;;;;;;;21.70;59.30;;;;;;4901045;29;19969;-70
2021/12/14 06:28:25;;;;;;;;;;;21.80;59.20;;;;;;4898704;29;19914;-70
2021/12/14 06:30:51;;;;;;;;;;;21.80;59.30;;;;;;4914525;29;20431;-70
2021/12/14 06:33:17;;;;;;;;;;;21.80;59.20;;;;;;4914372;29;19918;-71
2021/12/14 06:35:47;;;;;;;;;;;21.80;60.10;;;;;;4928528;29;19911;-71
2021/12/14 06:40:48;;;;;;;;;;;21.80;59.70;;;;;;4930108;29;19970;-71
2021/12/14 06:43:18;;;;;;;;;;;21.80;59.30;;;;;;4915424;29;19911;-71
2021/12/14 06:45:46;;;;;;;;;;;21.80;59.80;;;;;;4932781;29;20398;-71
2021/12/14 06:48:15;;;;;;;;;;;21.80;60.00;;;;;;4932974;29;19962;-70
2021/12/14 06:50:47;;;;;;;;;;;21.80;59.60;;;;;;4933262;29;19922;-71
2021/12/14 06:53:27;;;;;;;;;;;21.80;59.50;;;;;;4917571;29;19944;-71
2021/12/14 06:56:24;;;;;;;;;;;21.70;59.60;;;;;;4863373;29;19960;-71
2021/12/14 06:59:13;;;;;;;;;;;21.80;60.10;;;;;;4899431;29;19911;-71
2021/12/14 07:02:18;;;;;;;;;;;21.80;60.30;;;;;;4902378;29;19915;-71
2021/12/14 07:05:05;;;;;;;;;;;21.80;59.90;;;;;;4922232;29;20386;-70
2021/12/14 07:07:34;;;;;;;;;;;21.80;60.40;;;;;;4921403;29;19910;-70
2021/12/14 07:10:08;;;;;;;;;;;21.80;60.30;;;;;;4936864;29;20414;-70
2021/12/14 07:12:35;;;;;;;;;;;21.80;60.30;;;;;;4936844;29;19911;-70
2021/12/14 07:15:09;;;;;;;;;;;21.80;60.20;;;;;;4926490;29;19914;-70
2021/12/14 07:17:42;;;;;;;;;;;21.80;59.70;;;;;;4938688;23;21714;-74
2021/12/14 07:20:11;;;;;;;;;;;21.80;60.30;;;;;;4975937;28;19925;-74
2021/12/14 07:22:39;;;;;;;;;;;21.80;60.00;;;;;;4944754;29;20383;-74
2021/12/14 07:25:34;;;;;;;;;;;21.80;59.90;;;;;;4956668;29;19950;-74
2021/12/14 07:28:10;;;;;;;;;;;21.80;60.10;;;;;;4924440;29;19911;-74
2021/12/14 07:30:41;;;;;;;;;;;21.80;60.10;;;;;;4905178;29;19911;-75
2021/12/14 07:33:20;;;;;;;;;;;21.80;59.80;;;;;;4937810;29;19911;-75
2021/12/14 07:35:57;;;;;;;;;;;21.70;59.70;;;;;;4937052;29;20252;-75
2021/12/14 07:38:46;;;;;;;;;;;21.80;59.80;;;;;;4937254;29;19910;-75
2021/12/14 07:41:23;;;;;;;;;;;21.80;60.20;;;;;;4915465;29;19985;-75
2021/12/14 07:44:03;;;;;;;;;;;21.80;59.70;;;;;;4920203;29;19910;-74
2021/12/14 07:46:39;;;;;;;;;;;21.80;60.10;;;;;;4919120;29;20375;-75
2021/12/14 07:49:07;;;;;;;;;;;21.80;60.10;;;;;;4935557;29;20371;-75
2021/12/14 07:51:34;;;;;;;;;;;21.80;59.60;;;;;;4918580;29;19961;-75
2021/12/14 07:54:06;;;;;;;;;;;21.80;59.20;;;;;;4920151;29;21619;-75
2021/12/14 07:56:32;;;;;;;;;;;21.80;59.20;;;;;;4919756;29;19921;-75
2021/12/14 07:58:58;;;;;;;;;;;21.80;59.90;;;;;;4904613;29;19911;-75
2021/12/14 08:01:24;;;;;;;;;;;21.80;59.30;;;;;;4937366;29;19915;-75
2021/12/14 08:03:57;;;;;;;;;;;21.80;59.10;;;;;;4920148;29;19938;-74
2021/12/14 08:06:23;;;;;;;;;;;21.80;59.90;;;;;;4936969;29;19917;-75
2021/12/14 08:08:54;;;;;;;;;;;21.80;59.60;;;;;;4936928;29;19923;-75
2021/12/14 08:11:47;;;;;;;;;;;21.80;59.70;;;;;;4936580;29;19918;-75
2021/12/14 08:14:24;;;;;;;;;;;21.80;59.90;;;;;;4936884;29;20136;-75
2021/12/14 08:16:53;;;;;;;;;;;21.80;60.00;;;;;;4936856;29;19918;-75
2021/12/14 08:19:26;;;;;;;;;;;21.80;59.60;;;;;;4936842;29;19915;-74
2021/12/14 08:21:52;;;;;;;;;;;21.80;59.60;;;;;;4936697;29;20380;-75
2021/12/14 08:24:18;;;;;;;;;;;21.80;60.20;;;;;;4936208;29;20009;-75
2021/12/14 08:26:46;;;;;;;;;;;21.80;60.10;;;;;;4919529;29;20360;-75
2021/12/14 08:29:14;;;;;;;;;;;21.80;59.80;;;;;;4936681;29;19957;-75
2021/12/14 08:31:42;;;;;;;;;;;21.80;60.00;;;;;;4936864;29;19911;-75
2021/12/14 08:34:09;;;;;;;;;;;21.80;59.70;;;;;;4919496;29;20009;-76
2021/12/14 08:36:47;;;;;;;;;;;21.80;59.90;;;;;;4936286;29;19961;-76
2021/12/14 08:39:15;;;;;;;;;;;21.80;59.70;;;;;;4936440;29;19978;-76
2021/12/14 08:41:49;;;;;;;;;;;21.80;59.60;;;;;;4919526;29;19930;-76
2021/12/14 08:44:20;;;;;;;;;;;21.80;59.50;;;;;;4936094;29;19915;-77
2021/12/14 08:46:50;;;;;;;;;;;21.80;59.60;;;;;;4936708;29;19914;-76
2021/12/14 08:49:18;;;;;;;;;;;21.80;59.80;;;;;;4936371;29;19914;-76
2021/12/14 08:51:45;;;;;;;;;;;21.80;59.60;;;;;;4919507;29;19911;-76
2021/12/14 08:54:13;;;;;;;;;;;21.80;59.80;;;;;;4935883;29;19911;-76
2021/12/14 08:56:44;;;;;;;;;;;21.80;60.50;;;;;;4936334;29;19910;-76
2021/12/14 08:59:10;;;;;;;;;;;21.80;60.60;;;;;;4919188;29;19949;-76
2021/12/14 09:01:38;;;;;;;;;;;21.80;60.10;;;;;;4936031;29;19934;-76
2021/12/14 09:04:15;;;;;;;;;;;21.80;59.50;;;;;;4919115;29;19974;-77
2021/12/14 09:06:42;;;;;;;;;;;21.80;60.70;;;;;;4918971;29;19919;-76
2021/12/14 09:09:12;;;;;;;;;;;21.80;60.70;;;;;;4935349;29;19918;-76
2021/12/14 09:11:38;;;;;;;;;;;21.80;59.70;;;;;;4936018;29;19915;-76
2021/12/14 09:14:09;;;;;;;;;;;21.80;59.80;;;;;;4935773;29;19917;-76
2021/12/14 09:16:36;;;;;;;;;;;21.80;59.80;;;;;;4935892;29;19950;-76
2021/12/14 09:19:06;;;;;;;;;;;21.80;59.80;;;;;;4902945;29;20402;-76
2021/12/14 09:21:34;;;;;;;;;;;21.80;59.80;;;;;;4918046;29;19919;-75
2021/12/14 09:24:02;;;;;;;;;;;21.80;59.70;;;;;;4917861;29;20519;-76
2021/12/14 09:26:31;;;;;;;;;;;21.80;59.70;;;;;;4934982;29;19911;-76
2021/12/14 09:28:57;;;;;;;;;;;21.80;59.70;;;;;;4934502;29;19919;-76
2021/12/14 09:31:25;;;;;;;;;;;21.80;59.60;;;;;;4934995;29;19911;-76
2021/12/14 09:33:54;;;;;;;;;;;21.80;59.90;;;;;;4918005;29;19911;-77
2021/12/14 09:36:20;;;;;;;;;;;21.80;60.00;;;;;;4935138;29;19910;-76
2021/12/14 09:38:49;;;;;;;;;;;21.80;59.60;;;;;;4935497;29;19911;-76
2021/12/14 09:41:18;;;;;;;;;;;21.80;59.90;;;;;;4935329;29;20018;-76
2021/12/14 09:43:45;;;;;;;;;;;21.80;60.30;;;;;;4935091;29;19915;-77
2021/12/14 09:46:11;;;;;;;;;;;21.80;60.70;;;;;;4935376;29;19911;-76
2021/12/14 09:48:39;;;;;;;;;;;21.80;60.90;;;;;;4935188;29;19911;-75
2021/12/14 09:51:07;;;;;;;;;;;21.80;61.00;;;;;;4934896;29;19914;-76
2021/12/14 09:53:35;;;;;;;;;;;21.80;60.80;;;;;;4934586;29;19914;-77
2021/12/14 09:56:00;;;;;;;;;;;21.90;61.20;;;;;;4917879;29;19962;-76
2021/12/14 09:58:31;;;;;;;;;;;21.90;61.00;;;;;;4935421;29;20316;-75
2021/12/14 10:01:04;;;;;;;;;;;21.90;61.80;;;;;;4918286;29;19954;-77
2021/12/14 10:03:30;;;;;;;;;;;21.90;61.90;;;;;;4918193;29;20367;-77
2021/12/14 10:05:57;;;;;;;;;;;21.90;61.90;;;;;;4919127;29;19918;-76
2021/12/14 10:08:26;;;;;;;;;;;21.90;61.90;;;;;;4935100;29;19911;-77
2021/12/14 10:10:59;;;;;;;;;;;21.90;62.40;;;;;;4935078;29;19917;-77
2021/12/14 10:13:25;;;;;;;;;;;21.90;62.80;;;;;;4934557;29;19986;-76
2021/12/14 10:15:53;;;;;;;;;;;21.90;62.10;;;;;;4935424;29;19998;-76
2021/12/14 10:18:21;;;;;;;;;;;21.90;62.30;;;;;;4934243;29;20364;-76
2021/12/14 10:20:58;;;;;;;;;;;21.90;62.60;;;;;;4917690;29;20382;-75
2021/12/14 10:23:24;;;;;;;;;;;21.80;61.40;;;;;;4917747;29;19907;-76
2021/12/14 10:25:51;;;;;;;;;;;21.90;61.60;;;;;;4933533;29;20024;-77
2021/12/14 10:28:17;;;;;;;;;;;21.90;61.40;;;;;;4940978;29;19974;-79
2021/12/14 10:30:45;;;;;;;;;;;21.90;60.70;;;;;;4934906;29;19930;-78
2021/12/14 10:33:11;;;;;;;;;;;21.80;59.70;;;;;;4934133;29;19966;-77
2021/12/14 10:35:43;;;;;;;;;;;21.50;52.70;;;;;;4901561;29;19965;-77
2021/12/14 10:38:20;;;;;;;;;;;21.30;50.50;;;;;;4934799;29;19918;-76
2021/12/14 10:43:32;;;;;;;;;;;21.10;49.70;;;;;;4934266;29;19954;-77
2021/12/14 10:46:01;;;;;;;;;;;21.20;48.30;;;;;;4934202;29;19989;-77
2021/12/14 10:48:30;;;;;;;;;;;21.30;51.70;;;;;;4932119;29;19918;-77
2021/12/14 10:50:58;;;;;;;;;;;21.40;50.70;;;;;;4934873;29;19943;-76
2021/12/14 10:53:25;;;;;;;;;;;21.50;50.60;;;;;;4917046;29;19911;-76
2021/12/14 10:55:54;;;;;;;;;;;21.50;52.50;;;;;;4935791;29;19958;-76
2021/12/14 10:58:22;;;;;;;;;;;21.60;62.80;;;;;;4917198;29;19919;-77
2021/12/14 11:00:50;;;;;;;;;;;21.70;66.70;;;;;;4934121;29;19914;-77
2021/12/14 11:03:20;;;;;;;;;;;21.70;62.40;;;;;;4917008;29;19910;-76
2021/12/14 11:05:48;;;;;;;;;;;21.80;62.20;;;;;;4917211;29;19915;-77
2021/12/14 11:10:59;;;;;;;;;;;21.90;63.00;;;;;;4931966;29;20383;-78
2021/12/14 11:13:24;;;;;;;;;;;21.90;63.60;;;;;;4945609;29;20006;-78
2021/12/14 11:15:52;;;;;;;;;;;22.10;62.60;;;;;;4947317;29;20002;-78
2021/12/14 11:18:20;;;;;;;;;;;22.20;63.20;;;;;;4933713;29;19921;-77
2021/12/14 11:20:57;;;;;;;;;;;22.30;62.00;;;;;;4933472;29;20310;-79
2021/12/14 11:23:40;;;;;;;;;;;22.30;61.60;;;;;;4932535;29;19917;-78
2021/12/14 11:26:15;;;;;;;;;;;22.30;62.30;;;;;;4933996;29;19910;-79
2021/12/14 11:28:43;;;;;;;;;;;22.40;61.90;;;;;;4934177;29;19938;-79
2021/12/14 11:31:12;;;;;;;;;;;22.40;62.60;;;;;;4934255;29;19910;-80
2021/12/14 11:33:52;;;;;;;;;;;22.40;62.10;;;;;;4933904;29;19958;-80
2021/12/14 11:36:28;;;;;;;;;;;22.40;61.50;;;;;;4916935;29;19911;-78
2021/12/14 11:38:59;;;;;;;;;;;22.40;60.80;;;;;;4917270;29;19911;-78
2021/12/14 11:41:35;;;;;;;;;;;22.40;60.10;;;;;;4901623;29;20275;-80
2021/12/14 11:44:06;;;;;;;;;;;22.40;60.00;;;;;;4916889;29;19915;-78
2021/12/14 11:46:33;;;;;;;;;;;22.40;60.40;;;;;;4918192;29;19907;-78
2021/12/14 11:49:02;;;;;;;;;;;22.40;59.80;;;;;;4937674;29;19911;-79
2021/12/14 11:51:28;;;;;;;;;;;22.40;60.10;;;;;;4937735;29;19950;-78
2021/12/14 11:53:55;;;;;;;;;;;22.40;60.20;;;;;;4937677;29;19911;-79
2021/12/14 11:56:23;;;;;;;;;;;22.40;61.60;;;;;;4920458;29;19910;-78
2021/12/14 11:58:51;;;;;;;;;;;22.40;62.20;;;;;;4920367;29;20001;-78
2021/12/14 12:01:18;;;;;;;;;;;22.40;62.00;;;;;;4936363;29;19942;-77
2021/12/14 12:03:44;;;;;;;;;;;22.40;61.60;;;;;;4919719;29;19918;-77
2021/12/14 12:06:15;;;;;;;;;;;22.40;60.90;;;;;;4919834;29;19911;-75
2021/12/14 12:11:35;;;;;;;;;;;22.40;61.00;;;;;;4936993;29;19942;-77
2021/12/14 12:14:14;;;;;;;;;;;22.40;59.90;;;;;;4904260;29;20291;-78
2021/12/14 12:16:40;;;;;;;;;;;22.40;59.40;;;;;;4937025;29;19927;-77
2021/12/14 12:19:05;;;;;;;;;;;22.40;59.40;;;;;;4947523;29;19914;-78
2021/12/14 12:21:32;;;;;;;;;;;22.40;59.50;;;;;;4938544;29;19914;-78
2021/12/14 12:23:58;;;;;;;;;;;22.40;59.60;;;;;;4953450;29;20260;-77
2021/12/14 12:26:28;;;;;;;;;;;22.40;59.70;;;;;;4955759;28;19965;-77
2021/12/14 12:29:01;;;;;;;;;;;22.40;60.30;;;;;;4956361;28;20272;-78
2021/12/14 12:31:26;;;;;;;;;;;22.40;59.80;;;;;;4956370;29;20045;-77
2021/12/14 12:33:54;;;;;;;;;;;22.40;59.80;;;;;;4955925;29;19973;-76
2021/12/14 12:36:29;;;;;;;;;;;22.40;59.90;;;;;;4954563;29;20370;-77
2021/12/14 12:38:57;;;;;;;;;;;22.40;60.00;;;;;;4955935;28;19922;-76
2021/12/14 12:41:46;;;;;;;;;;;22.40;60.70;;;;;;4954320;29;20148;-76
2021/12/14 12:44:26;;;;;;;;;;;22.40;61.00;;;;;;4955398;28;20416;-76
2021/12/14 12:47:15;;;;;;;;;;;22.40;60.40;;;;;;4938397;29;19965;-72
2021/12/14 12:49:43;;;;;;;;;;;22.30;60.40;;;;;;4919846;29;20303;-75
2021/12/14 12:52:10;;;;;;;;;;;22.30;60.30;;;;;;4954301;29;19946;-74
2021/12/14 12:54:42;;;;;;;;;;;22.30;60.20;;;;;;4955037;29;19950;-74
2021/12/14 12:57:08;;;;;;;;;;;22.40;60.50;;;;;;4955047;28;19906;-75
2021/12/14 12:59:47;;;;;;;;;;;22.40;61.20;;;;;;4955285;29;20005;-74
2021/12/14 13:02:20;;;;;;;;;;;22.40;60.50;;;;;;4955034;29;19961;-74
2021/12/14 13:04:48;;;;;;;;;;;22.30;60.70;;;;;;4955011;29;19910;-73
2021/12/14 13:07:14;;;;;;;;;;;22.30;61.00;;;;;;4954886;28;19910;-71
2021/12/14 13:09:59;;;;;;;;;;;22.20;60.70;;;;;;4938042;29;19964;-74
2021/12/14 13:12:43;;;;;;;;;;;22.00;60.10;;;;;;4954060;29;19910;-75
2021/12/14 13:15:27;;;;;;;;;;;22.00;58.80;;;;;;4954811;28;19915;-75
2021/12/14 13:18:12;;;;;;;;;;;22.00;56.90;;;;;;4953816;28;19914;-75
2021/12/14 13:20:37;;;;;;;;;;;22.00;55.40;;;;;;4954882;29;19922;-73
2021/12/14 13:23:03;;;;;;;;;;;22.00;55.70;;;;;;4954994;29;20272;-74
2021/12/14 13:25:39;;;;;;;;;;;22.00;55.50;;;;;;4954671;29;19938;-74
2021/12/14 13:28:05;;;;;;;;;;;22.10;56.00;;;;;;4953573;29;20409;-74
2021/12/14 13:30:31;;;;;;;;;;;22.10;58.00;;;;;;4942373;28;19910;-74
2021/12/14 13:32:56;;;;;;;;;;;22.10;59.70;;;;;;4932749;29;20368;-74
2021/12/14 13:35:28;;;;;;;;;;;22.20;59.40;;;;;;4932953;29;19966;-75
2021/12/14 13:37:56;;;;;;;;;;;22.20;58.40;;;;;;4935094;29;20327;-74
2021/12/14 13:40:41;;;;;;;;;;;22.20;57.10;;;;;;4918162;29;19915;-75
2021/12/14 13:43:07;;;;;;;;;;;22.20;56.80;;;;;;4934903;29;19910;-74
2021/12/14 13:45:35;;;;;;;;;;;22.20;57.00;;;;;;4934610;29;19934;-75
2021/12/14 13:48:03;;;;;;;;;;;22.20;57.20;;;;;;4935094;29;19961;-74
2021/12/14 13:50:38;;;;;;;;;;;22.30;57.40;;;;;;4918166;29;19921;-75
2021/12/14 13:53:04;;;;;;;;;;;22.30;58.10;;;;;;4918265;29;19918;-75
2021/12/14 13:55:42;;;;;;;;;;;22.30;58.70;;;;;;4934865;29;20314;-75
2021/12/14 13:58:16;;;;;;;;;;;22.40;58.40;;;;;;4934926;29;19958;-75
2021/12/14 14:00:41;;;;;;;;;;;22.30;58.00;;;;;;4933293;29;19914;-75
2021/12/14 14:03:08;;;;;;;;;;;22.30;58.80;;;;;;4913014;29;20144;-75
2021/12/14 14:05:35;;;;;;;;;;;22.30;59.10;;;;;;4932631;29;19911;-75
2021/12/14 14:08:05;;;;;;;;;;;22.40;59.80;;;;;;4933154;29;20299;-76
2021/12/14 14:10:31;;;;;;;;;;;22.40;59.70;;;;;;4917379;29;20005;-75
2021/12/14 14:13:00;;;;;;;;;;;22.50;59.90;;;;;;4933809;29;19911;-76
2021/12/14 14:15:31;;;;;;;;;;;22.50;59.50;;;;;;4934458;29;19917;-76
2021/12/14 14:17:58;;;;;;;;;;;22.40;60.10;;;;;;4934931;29;19915;-75
2021/12/14 14:20:28;;;;;;;;;;;22.20;59.50;;;;;;4931681;29;20017;-75
2021/12/14 14:23:04;;;;;;;;;;;22.10;57.80;;;;;;4936564;29;19918;-75
2021/12/14 14:25:30;;;;;;;;;;;22.10;54.90;;;;;;4915434;29;19918;-75
2021/12/14 14:27:57;;;;;;;;;;;22.20;54.70;;;;;;4916888;29;19922;-75
2021/12/14 14:30:38;;;;;;;;;;;22.20;54.90;;;;;;4934631;29;19917;-75
2021/12/14 14:33:23;;;;;;;;;;;22.30;55.10;;;;;;4934488;29;19915;-75
2021/12/14 14:35:54;;;;;;;;;;;22.30;55.30;;;;;;4934166;29;19987;-75
2021/12/14 14:38:26;;;;;;;;;;;22.30;55.50;;;;;;4917768;29;19914;-75
2021/12/14 14:40:52;;;;;;;;;;;22.30;55.50;;;;;;4934468;29;19958;-75
2021/12/14 14:43:18;;;;;;;;;;;22.30;55.70;;;;;;4934308;29;20228;-76
2021/12/14 14:45:44;;;;;;;;;;;22.40;56.20;;;;;;4934251;29;19958;-75
2021/12/14 14:48:17;;;;;;;;;;;22.40;56.20;;;;;;4933854;29;20005;-75
2021/12/14 14:50:42;;;;;;;;;;;22.30;56.50;;;;;;4932727;29;19918;-76
2021/12/14 14:53:10;;;;;;;;;;;22.40;56.70;;;;;;4934407;29;19915;-76
2021/12/14 14:55:47;;;;;;;;;;;22.40;57.00;;;;;;4933543;29;19911;-75
2021/12/14 14:58:17;;;;;;;;;;;22.40;57.40;;;;;;4933967;29;19911;-75
2021/12/14 15:00:52;;;;;;;;;;;22.40;57.40;;;;;;4934381;29;19921;-76
2021/12/14 15:03:32;;;;;;;;;;;22.40;57.10;;;;;;4934271;29;19911;-75
2021/12/14 15:06:00;;;;;;;;;;;22.40;57.50;;;;;;4934010;29;19911;-76
2021/12/14 15:08:26;;;;;;;;;;;22.50;57.70;;;;;;4934044;29;19918;-75
2021/12/14 15:10:54;;;;;;;;;;;22.50;58.10;;;;;;4939619;29;19910;-75
2021/12/14 15:13:26;;;;;;;;;;;22.50;57.80;;;;;;4932998;29;19915;-75
2021/12/14 15:16:05;;;;;;;;;;;22.40;58.00;;;;;;4934028;29;19945;-75